Espaço - Ciências - Fenômenos Naturais
Meteógrafos Informações Meteorológicas em tempo real

Aeroporto de Congonhas

Histórico do Tempo
Temperatura atual: 16 graus 60 F    Umidade relativa: 63 %
Velocidade do vento: 00 nós 0 Km/h    Direção: 000 graus N
Ajuste do altímetro ..: 1028 HPA
Visibilidade: Ótima    Tempo presente: Céu Limpo

Observação

Data Hora BRTTempo°CUmidadePressãoVentoVisib.
26/07 - 00:55   Céu Limpo 16° 63% 1028 Norte/0 km/h OK
25/07 - 23:55   Céu Limpo 17° 59% 1028 Sudeste/5 km/h OK
25/07 - 22:55   Céu Limpo 17° 59% 1028 Leste/3 km/h OK
25/07 - 21:55   Céu Limpo 18° 55% 1028 Este-sudeste/3 km/h OK
25/07 - 20:55   Céu Limpo 19° 52% 1027 Sudeste/7 km/h CAVO
25/07 - 19:55   Céu Limpo 19° 52% 1027 Sudeste/7 km/h CAVO
25/07 - 18:55   Céu Limpo 19° 56% 1027 Sul-sudeste/10 km/h OK
25/07 - 17:55   Céu Limpo 23° 43% 1027 Sul-sudeste/19 km/h OK
25/07 - 16:55   Céu Limpo 23° 43% 1027 Sul-sudeste/19 km/h OK
25/07 - 15:55   Céu Limpo 25° 31% 1027 Oeste-noroeste/7 km/h CAVO
25/07 - 14:55   Céu Limpo 24° 38% 1027 /5 km/h OK
25/07 - 13:55   Céu Limpo 24° 38% 1028 Norte-noroeste/9 km/h OK
25/07 - 12:55   Céu Limpo 23° 38% 1029 Noroeste/18 km/h OK
25/07 - 11:55   Céu Limpo 23° 38% 1030 Noroeste/18 km/h OK
25/07 - 10:55   Quase sem nuvens 21° 46% 1030 Nordeste/9 km/h 8000
25/07 - 09:55   Quase sem nuvens 21° 46% 1030 Nordeste/9 km/h 8000
25/07 - 08:55   Quase sem nuvens 15° 72% 1029 Norte/7 km/h 8000
25/07 - 07:55   Quase sem nuvens 14° 76% 1029 Norte/3 km/h 8000
25/07 - 06:55   Céu Limpo 14° 71% 1028 Norte-nordeste/3 km/h OK
25/07 - 05:55   Céu Limpo 14° 71% 1028 Norte-nordeste/3 km/h OK
25/07 - 04:55   Céu Limpo 15° 63% 1027 /1 km/h OK
25/07 - 03:55   Céu Limpo 15° 63% 1028 Norte/0 km/h OK
25/07 - 02:55   Céu Limpo 15° 63% 1028 /1 km/h OK
25/07 - 01:55   Céu Limpo 17° 55% 1028 Este-nordeste/3 km/h OK


Apolo11.com - Todos os direitos reservados - 2000 - 2017
Política de Privacidade   |     Termo de Uso e Licenciamento   |  -   Entre em Contato

"Eu sempre digo: mantenha um diário e um dia ele lhe manterá" - Mae West